Time;durP1;ratioP1;P1;durP2;ratioP2;P2;SDS_P1;SDS_P2;PMS_P1;PMS_P2;Temp;Humidity;BMP_temperature;BMP_pressure;BME280_temperature;BME280_humidity;BME280_pressure;Samples;Min_cycle;Max_cycle;Signal;HPM_P1;HPM_P2
2022/06/14 00:02:37;;;;;;;;;;;;;;;21.06;70.11;100541.69;7404262;19;1638;-37
2022/06/14 00:05:06;;;;;;;;;;;;;;;21.09;70.10;100554.81;7403128;19;1503;-38
2022/06/14 00:07:34;;;;;;;;;;;;;;;21.10;70.50;100550.28;7401655;19;1848;-37
2022/06/14 00:10:03;;;;;;;;;;;;;;;21.08;70.06;100557.66;7401845;19;1521;-37
2022/06/14 00:12:31;;;;;;;;;;;;;;;21.05;69.73;100542.69;7401414;19;2396;-37
2022/06/14 00:15:02;;;;;;;;;;;;;;;21.06;70.21;100558.66;7400401;19;1645;-37
2022/06/14 00:17:30;;;;;;;;;;;;;;;21.06;69.50;100537.13;7402921;19;1660;-37
2022/06/14 00:19:59;;;;;;;;;;;;;;;21.03;69.71;100566.19;7401396;19;1658;-37
2022/06/14 00:22:27;;;;;;;;;;;;;;;21.08;69.75;100552.28;7402843;19;1819;-37
2022/06/14 00:24:57;;;;;;;;;;;;;;;21.01;69.81;100547.53;7403374;19;1083;-36
2022/06/14 00:27:25;;;;;;;;;;;;;;;20.99;69.41;100544.16;7399240;19;1982;-37
2022/06/14 00:29:53;;;;;;;;;;;;;;;20.98;69.42;100537.06;7404227;19;1023;-36
2022/06/14 00:32:24;;;;;;;;;;;;;;;21.00;69.37;100534.22;7402100;19;1807;-36
2022/06/14 00:34:52;;;;;;;;;;;;;;;20.98;69.43;100536.22;7401197;19;2078;-37
2022/06/14 00:37:21;;;;;;;;;;;;;;;21.01;68.99;100538.63;7402276;19;1856;-37
2022/06/14 00:39:50;;;;;;;;;;;;;;;21.01;69.27;100539.47;7401738;19;1908;-37
2022/06/14 00:42:19;;;;;;;;;;;;;;;20.98;69.47;100550.50;7396558;19;1815;-37
2022/06/14 00:45:03;;;;;;;;;;;;;;;21.01;69.29;100542.16;7404776;19;1832;-37
2022/06/14 00:47:37;;;;;;;;;;;;;;;21.01;69.47;100546.69;7402953;19;1825;-36
2022/06/14 00:50:07;;;;;;;;;;;;;;;20.99;69.26;100544.16;7400705;19;1807;-36
2022/06/14 00:52:37;;;;;;;;;;;;;;;20.97;69.32;100546.16;7402134;19;1825;-36
2022/06/14 00:55:09;;;;;;;;;;;;;;;21.07;69.69;100546.06;7402369;19;1940;-37
2022/06/14 00:57:40;;;;;;;;;;;;;;;21.02;69.35;100541.13;7407074;19;1954;-36
2022/06/14 01:00:11;;;;;;;;;;;;;;;21.01;69.94;100542.16;7409941;19;1804;-36
2022/06/14 01:02:45;;;;;;;;;;;;;;;20.99;69.80;100559.41;7410504;19;1637;-36
2022/06/14 01:05:18;;;;;;;;;;;;;;;20.99;69.43;100549.53;7409481;19;1544;-36
2022/06/14 01:07:49;;;;;;;;;;;;;;;20.98;69.30;100542.44;7406978;19;1931;-36
2022/06/14 01:10:19;;;;;;;;;;;;;;;20.99;69.47;100544.16;7410352;19;1032;-36
2022/06/14 01:12:49;;;;;;;;;;;;;;;20.96;69.58;100549.81;7410567;19;961;-36
2022/06/14 01:15:20;;;;;;;;;;;;;;;20.94;69.09;100545.59;7409394;19;1887;-36
2022/06/14 01:17:54;;;;;;;;;;;;;;;20.92;69.19;100551.13;7409527;19;1940;-37
2022/06/14 01:20:23;;;;;;;;;;;;;;;20.93;69.13;100536.72;7408830;19;1943;-36
2022/06/14 01:22:55;;;;;;;;;;;;;;;20.91;69.04;100530.63;7409169;19;1815;-36
2022/06/14 01:25:24;;;;;;;;;;;;;;;20.93;68.98;100534.03;7410299;19;1024;-36
2022/06/14 01:27:53;;;;;;;;;;;;;;;20.93;69.26;100539.38;7405767;19;1847;-36
2022/06/14 01:30:22;;;;;;;;;;;;;;;20.94;69.11;100535.69;7408264;19;1863;-36
2022/06/14 01:32:53;;;;;;;;;;;;;;;20.96;69.09;100530.16;7406240;19;1846;-35
2022/06/14 01:35:23;;;;;;;;;;;;;;;20.97;69.22;100537.22;7407875;19;1590;-36
2022/06/14 01:37:55;;;;;;;;;;;;;;;20.93;68.86;100536.72;7407360;19;1858;-36
2022/06/14 01:40:26;;;;;;;;;;;;;;;21.00;69.14;100545.81;7405435;19;1479;-36
2022/06/14 01:43:09;;;;;;;;;;;;;;;20.94;69.26;100535.69;7406482;19;1963;-36
2022/06/14 01:45:40;;;;;;;;;;;;;;;20.97;68.89;100546.16;7406077;19;1824;-36
2022/06/14 01:48:13;;;;;;;;;;;;;;;20.92;68.98;100535.00;7404621;19;1867;-36
2022/06/14 01:53:42;;;;;;;;;;;;;;;20.89;68.62;100537.16;7407661;19;1837;-37
2022/06/14 01:56:13;;;;;;;;;;;;;;;20.87;68.56;100529.25;7408492;19;1460;-36
2022/06/14 01:58:45;;;;;;;;;;;;;;;20.85;68.68;100537.47;7407432;19;1932;-36
2022/06/14 02:01:18;;;;;;;;;;;;;;;20.90;68.79;100528.09;7395561;19;3434;-59
2022/06/14 02:06:38;;;;;;;;;;;;;;;20.89;68.75;100545.22;7406704;19;1851;-59
2022/06/14 02:09:12;;;;;;;;;;;;;;;20.95;68.55;100550.84;7406076;19;1583;-61
2022/06/14 02:11:41;;;;;;;;;;;;;;;20.88;68.23;100552.44;7407391;19;1560;-59
2022/06/14 02:14:12;;;;;;;;;;;;;;;20.91;68.34;100546.75;7406464;19;1587;-61
2022/06/14 02:16:45;;;;;;;;;;;;;;;20.89;68.43;100538.00;7407514;19;1642;-61
2022/06/14 02:19:17;;;;;;;;;;;;;;;20.87;68.25;100534.63;7408697;19;1498;-61
2022/06/14 02:21:49;;;;;;;;;;;;;;;20.88;68.37;100551.59;7407371;19;1758;-59
2022/06/14 02:24:22;;;;;;;;;;;;;;;20.90;68.67;100518.19;7405659;19;1599;-59
2022/06/14 02:26:53;;;;;;;;;;;;;;;20.88;68.52;100546.22;7407675;19;1855;-61
2022/06/14 02:29:24;;;;;;;;;;;;;;;20.90;68.50;100545.06;7408738;19;1761;-61
2022/06/14 02:31:57;;;;;;;;;;;;;;;20.88;68.74;100541.69;7408408;19;1311;-59
2022/06/14 02:34:28;;;;;;;;;;;;;;;20.87;68.54;100553.44;7408339;19;1887;-61
2022/06/14 02:36:59;;;;;;;;;;;;;;;20.83;68.78;100527.84;7408981;19;1698;-61
2022/06/14 02:39:37;;;;;;;;;;;;;;;20.90;68.29;100552.28;7407846;19;1524;-61
2022/06/14 02:42:08;;;;;;;;;;;;;;;20.87;68.61;100553.44;7405561;19;1543;-59
2022/06/14 02:44:39;;;;;;;;;;;;;;;20.87;68.50;100553.44;7407951;19;1312;-59
2022/06/14 02:47:10;;;;;;;;;;;;;;;20.84;68.41;100551.06;7407769;19;1833;-59
2022/06/14 02:49:41;;;;;;;;;;;;;;;20.83;68.41;100550.22;7409221;19;1051;-59
2022/06/14 02:52:14;;;;;;;;;;;;;;;20.84;68.21;100559.13;7408512;19;1365;-62
2022/06/14 02:54:47;;;;;;;;;;;;;;;20.81;68.47;100562.09;7407567;19;1476;-59
2022/06/14 02:57:19;;;;;;;;;;;;;;;20.83;68.02;100560.09;7407295;19;1664;-59
2022/06/14 02:59:52;;;;;;;;;;;;;;;20.86;68.49;100549.06;7407562;19;1616;-59
2022/06/14 03:02:22;;;;;;;;;;;;;;;20.92;68.33;100567.25;7405356;19;1608;-59
2022/06/14 03:04:53;;;;;;;;;;;;;;;21.00;68.47;100578.09;7406455;19;1676;-58
2022/06/14 03:07:24;;;;;;;;;;;;;;;20.95;68.49;100593.84;7404093;19;1843;-58
2022/06/14 03:09:55;;;;;;;;;;;;;;;20.91;68.65;100584.41;7404450;19;1556;-58
2022/06/14 03:12:28;;;;;;;;;;;;;;;20.90;68.45;100593.44;7404985;19;1640;-58
2022/06/14 03:15:05;;;;;;;;;;;;;;;20.90;68.69;100590.75;7404490;19;1455;-58
2022/06/14 03:17:44;;;;;;;;;;;;;;;20.92;68.70;100598.69;7405747;19;1546;-58
2022/06/14 03:20:14;;;;;;;;;;;;;;;20.85;68.46;100585.84;7402650;19;1712;-60
2022/06/14 03:22:45;;;;;;;;;;;;;;;20.92;68.42;100607.56;7405397;19;1545;-60
2022/06/14 03:25:23;;;;;;;;;;;;;;;20.90;68.38;100604.19;7408231;19;976;-59
2022/06/14 03:27:55;;;;;;;;;;;;;;;20.90;68.50;100592.59;7404381;19;1826;-60
2022/06/14 03:30:26;;;;;;;;;;;;;;;20.87;68.71;100599.13;7406177;19;1765;-59
2022/06/14 03:32:58;;;;;;;;;;;;;;;20.93;68.54;100598.53;7408117;19;1530;-60
2022/06/14 03:35:29;;;;;;;;;;;;;;;20.94;68.78;100599.38;7407491;19;1555;-60
2022/06/14 03:37:58;;;;;;;;;;;;;;;20.97;68.97;100607.97;7406825;19;1668;-58
2022/06/14 03:40:29;;;;;;;;;;;;;;;20.96;68.93;100603.59;7406295;19;1672;-58
2022/06/14 03:42:58;;;;;;;;;;;;;;;20.96;69.01;100614.34;7404348;19;1641;-60
2022/06/14 03:45:41;;;;;;;;;;;;;;;20.99;68.93;100613.19;7407390;19;1546;-60
2022/06/14 03:48:10;;;;;;;;;;;;;;;20.96;69.42;100614.34;7403455;19;1855;-60
2022/06/14 03:50:42;;;;;;;;;;;;;;;20.94;69.33;100610.97;7404950;19;1460;-60
2022/06/14 03:53:16;;;;;;;;;;;;;;;20.99;69.35;100624.81;7405172;19;1632;-58
2022/06/14 03:55:56;;;;;;;;;;;;;;;21.03;68.96;100615.44;7406045;19;959;-60
2022/06/14 03:58:34;;;;;;;;;;;;;;;21.05;69.05;100618.81;7405082;19;1762;-59
2022/06/14 04:01:05;;;;;;;;;;;;;;;21.10;69.52;100631.78;7405682;19;1511;-58
2022/06/14 04:03:42;;;;;;;;;;;;;;;21.12;69.17;100602.06;7402916;19;1460;-58
2022/06/14 04:06:16;;;;;;;;;;;;;;;21.12;69.28;100608.28;7405672;19;1538;-60
2022/06/14 04:08:49;;;;;;;;;;;;;;;21.15;69.29;100616.06;7401934;19;1856;-58
2022/06/14 04:11:25;;;;;;;;;;;;;;;21.17;69.75;100618.56;7406276;19;975;-60
2022/06/14 04:13:59;;;;;;;;;;;;;;;21.16;70.21;100615.03;7406217;19;1850;-60
2022/06/14 04:16:29;;;;;;;;;;;;;;;21.17;70.13;100619.44;7406144;19;1609;-58
2022/06/14 04:19:03;;;;;;;;;;;;;;;21.21;70.09;100622.66;7405298;19;1733;-60
2022/06/14 04:21:37;;;;;;;;;;;;;;;21.23;69.69;100621.50;7405763;19;1669;-58
2022/06/14 04:24:12;;;;;;;;;;;;;;;21.26;69.88;100623.03;7404695;19;1646;-58
2022/06/14 04:26:48;;;;;;;;;;;;;;;21.29;69.55;100616.50;7405137;19;1708;-60
2022/06/14 04:29:21;;;;;;;;;;;;;;;21.33;69.79;100625.94;7405894;19;939;-58
2022/06/14 04:31:51;;;;;;;;;;;;;;;21.35;69.51;100619.44;7402204;19;1747;-61
2022/06/14 04:34:22;;;;;;;;;;;;;;;21.34;69.92;100631.16;7404909;19;1616;-58
2022/06/14 04:36:55;;;;;;;;;;;;;;;21.47;69.59;100635.34;7404080;19;1625;-58
2022/06/14 04:39:28;;;;;;;;;;;;;;;21.46;69.31;100631.81;7403977;19;1601;-58
2022/06/14 04:42:01;;;;;;;;;;;;;;;21.49;69.51;100631.53;7401755;19;1604;-58
2022/06/14 04:44:34;;;;;;;;;;;;;;;21.56;69.15;100634.41;7402850;19;1559;-60
2022/06/14 04:47:05;;;;;;;;;;;;;;;21.63;69.15;100638.19;7404460;19;1866;-60
2022/06/14 04:49:36;;;;;;;;;;;;;;;21.68;69.25;100630.47;7402259;19;1518;-60
2022/06/14 04:52:06;;;;;;;;;;;;;;;21.69;69.13;100624.09;7404529;19;1502;-62
2022/06/14 04:54:41;;;;;;;;;;;;;;;21.73;69.15;100628.19;7401478;19;1760;-58
2022/06/14 04:57:14;;;;;;;;;;;;;;;21.82;69.16;100634.44;7403903;19;1334;-61
2022/06/14 04:59:45;;;;;;;;;;;;;;;21.88;69.33;100633.81;7404367;19;1629;-61
2022/06/14 05:02:15;;;;;;;;;;;;;;;21.90;69.26;100633.66;7402866;19;1613;-63
2022/06/14 05:04:48;;;;;;;;;;;;;;;21.93;69.19;100627.97;7403703;19;1551;-59
2022/06/14 05:07:21;;;;;;;;;;;;;;;21.98;69.17;100653.41;7404032;19;1855;-59
2022/06/14 05:09:53;;;;;;;;;;;;;;;22.00;68.92;100646.03;7404473;19;1166;-59
2022/06/14 05:12:26;;;;;;;;;;;;;;;22.02;68.78;100654.81;7402380;19;1340;-60
2022/06/14 05:14:57;;;;;;;;;;;;;;;22.08;69.40;100642.53;7402165;19;1574;-59
2022/06/14 05:17:28;;;;;;;;;;;;;;;22.15;69.44;100648.16;7403977;19;1636;-60
2022/06/14 05:19:59;;;;;;;;;;;;;;;22.19;69.49;100657.59;7402024;19;1531;-58
2022/06/14 05:22:32;;;;;;;;;;;;;;;22.13;70.09;100650.16;7404090;19;1539;-58
2022/06/14 05:25:00;;;;;;;;;;;;;;;22.22;69.72;100649.19;7402346;19;1523;-62
2022/06/14 05:27:45;;;;;;;;;;;;;;;22.18;70.30;100647.81;7402265;19;1874;-57
2022/06/14 05:30:21;;;;;;;;;;;;;;;22.10;70.70;100640.53;7401266;19;1712;-59
2022/06/14 05:32:52;;;;;;;;;;;;;;;22.11;71.11;100653.00;7403547;19;1545;-59
2022/06/14 05:35:29;;;;;;;;;;;;;;;22.12;70.82;100649.28;7403323;19;1519;-59
2022/06/14 05:38:01;;;;;;;;;;;;;;;22.10;71.00;100664.75;7402298;19;1770;-59
2022/06/14 05:40:33;;;;;;;;;;;;;;;22.07;71.06;100657.00;7399833;19;1729;-60
2022/06/14 05:43:07;;;;;;;;;;;;;;;22.12;71.02;100651.97;7401407;19;1492;-61
2022/06/14 05:45:39;;;;;;;;;;;;;;;22.15;70.59;100643.59;7408177;19;1628;-59
2022/06/14 05:48:10;;;;;;;;;;;;;;;22.14;70.87;100654.53;7407809;19;1856;-59
2022/06/14 05:50:39;;;;;;;;;;;;;;;22.09;71.00;100654.16;7410593;19;1518;-59
2022/06/14 05:53:11;;;;;;;;;;;;;;;22.10;70.77;100672.84;7409441;19;1538;-58
2022/06/14 05:55:40;;;;;;;;;;;;;;;22.06;70.86;100660.69;7410651;19;996;-59
2022/06/14 05:58:14;;;;;;;;;;;;;;;22.08;71.12;100672.16;7409726;19;1771;-59
2022/06/14 06:00:45;;;;;;;;;;;;;;;22.08;71.18;100672.16;7409541;19;1542;-47
2022/06/14 06:03:18;;;;;;;;;;;;;;;22.04;71.09;100662.69;7409303;19;1636;-59
2022/06/14 06:05:47;;;;;;;;;;;;;;;22.10;71.25;100672.84;7407705;19;1616;-59
2022/06/14 06:08:21;;;;;;;;;;;;;;;22.07;71.14;100667.78;7408247;19;1860;-59
2022/06/14 06:10:50;;;;;;;;;;;;;;;22.09;71.04;100678.41;7408947;19;1075;-59
2022/06/14 06:13:23;;;;;;;;;;;;;;;22.09;70.85;100668.47;7409552;19;1727;-59
2022/06/14 06:15:54;;;;;;;;;;;;;;;22.10;71.10;100672.00;7410082;19;1608;-59
2022/06/14 06:18:25;;;;;;;;;;;;;;;22.08;71.13;100669.47;7409677;19;1601;-59
2022/06/14 06:20:56;;;;;;;;;;;;;;;22.09;71.01;100670.31;7409041;19;1628;-60
2022/06/14 06:23:28;;;;;;;;;;;;;;;22.09;70.83;100681.94;7409744;19;1251;-58
2022/06/14 06:25:57;;;;;;;;;;;;;;;22.09;71.06;100660.38;7407043;19;1680;-59
2022/06/14 06:28:31;;;;;;;;;;;;;;;22.10;71.24;100662.06;7407934;19;1845;-59
2022/06/14 06:31:03;;;;;;;;;;;;;;;22.09;70.94;100664.94;7408409;19;1724;-58
2022/06/14 06:33:33;;;;;;;;;;;;;;;22.11;71.12;100666.47;7409958;19;1636;-59
2022/06/14 06:36:06;;;;;;;;;;;;;;;22.11;70.91;100662.94;7408866;19;1538;-58
2022/06/14 06:38:38;;;;;;;;;;;;;;;22.14;71.40;100663.44;7408792;19;1625;-59
2022/06/14 06:43:54;;;;;;;;;;;;;;;22.15;70.91;100664.31;7409954;19;1691;-59
2022/06/14 06:46:24;;;;;;;;;;;;;;;22.12;71.03;100676.22;7408828;19;1684;-59
2022/06/14 06:48:57;;;;;;;;;;;;;;;22.11;70.88;100674.53;7406968;19;1855;-59
2022/06/14 06:51:34;;;;;;;;;;;;;;;22.08;71.03;100680.22;7406595;19;1531;-58
2022/06/14 06:54:06;;;;;;;;;;;;;;;22.09;71.07;100667.63;7408855;19;1546;-59
2022/06/14 06:56:36;;;;;;;;;;;;;;;22.15;71.29;100683.16;7407686;19;1415;-60
2022/06/14 06:59:11;;;;;;;;;;;;;;;22.13;71.07;100683.31;7407334;19;1377;-60
2022/06/14 07:01:41;;;;;;;;;;;;;;;22.11;71.13;100668.31;7407782;19;1041;-58
2022/06/14 07:04:14;;;;;;;;;;;;;;;22.12;70.98;100670.00;7408868;19;1743;-58
2022/06/14 07:06:45;;;;;;;;;;;;;;;22.13;71.04;100691.38;7408429;19;1680;-58
2022/06/14 07:09:20;;;;;;;;;;;;;;;22.12;71.23;100684.28;7404379;19;1860;-58
2022/06/14 07:11:51;;;;;;;;;;;;;;;22.12;71.17;100678.91;7407222;19;1605;-60
2022/06/14 07:14:29;;;;;;;;;;;;;;;22.14;71.27;100668.81;7405925;19;1558;-59
2022/06/14 07:17:02;;;;;;;;;;;;;;;22.17;71.03;100700.00;7408347;19;1511;-59
2022/06/14 07:19:33;;;;;;;;;;;;;;;22.18;71.27;100690.91;7409032;19;963;-59
2022/06/14 07:22:06;;;;;;;;;;;;;;;22.12;71.28;100681.59;7408454;19;1062;-59
2022/06/14 07:24:38;;;;;;;;;;;;;;;22.12;71.44;100686.16;7406824;19;1688;-59
2022/06/14 07:27:11;;;;;;;;;;;;;;;22.13;71.44;100696.78;7404095;19;1720;-59
2022/06/14 07:29:46;;;;;;;;;;;;;;;22.15;71.44;100684.00;7403503;19;1861;-59
2022/06/14 07:32:18;;;;;;;;;;;;;;;22.14;71.38;100679.59;7406793;19;1779;-59
2022/06/14 07:34:47;;;;;;;;;;;;;;;22.16;71.25;100677.63;7407393;19;1566;-59
2022/06/14 07:37:19;;;;;;;;;;;;;;;22.16;71.56;100690.22;7406749;19;1610;-59
2022/06/14 07:39:55;;;;;;;;;;;;;;;22.17;71.62;100673.91;7404721;19;1233;-59
2022/06/14 07:42:27;;;;;;;;;;;;;;;22.18;71.54;100675.59;7404578;19;1528;-59
2022/06/14 07:45:07;;;;;;;;;;;;;;;22.18;71.16;100680.13;7407501;19;1529;-59
2022/06/14 07:47:39;;;;;;;;;;;;;;;22.16;71.48;100676.75;7407023;19;1577;-59
2022/06/14 07:50:13;;;;;;;;;;;;;;;22.19;71.83;100693.44;7404993;19;1852;-59
2022/06/14 07:52:45;;;;;;;;;;;;;;;22.17;71.57;100679.28;7406462;19;1628;-60
2022/06/14 07:55:16;;;;;;;;;;;;;;;21.79;71.47;100680.53;7406823;19;1140;-59
2022/06/14 07:57:48;;;;;;;;;;;;;;;21.24;71.04;100681.50;7403981;19;1597;-59
2022/06/14 08:03:05;;;;;;;;;;;;;;;21.33;70.26;100679.72;7404311;19;1542;-60
2022/06/14 08:05:36;;;;;;;;;;;;;;;21.72;70.24;100684.84;7406044;19;1407;-59
2022/06/14 08:08:07;;;;;;;;;;;;;;;21.92;69.42;100696.28;7401733;19;1841;-59
2022/06/14 08:10:40;;;;;;;;;;;;;;;22.07;69.00;100700.09;7405195;19;1176;-59
2022/06/14 08:13:10;;;;;;;;;;;;;;;22.10;68.81;100699.75;7405629;19;1347;-59
2022/06/14 08:15:40;;;;;;;;;;;;;;;22.12;69.23;100689.69;7405799;19;1395;-59
2022/06/14 08:18:14;;;;;;;;;;;;;;;22.21;69.17;100699.50;7403304;19;1296;-59
2022/06/14 08:20:45;;;;;;;;;;;;;;;22.20;69.30;100691.59;7404816;19;1606;-60
2022/06/14 08:23:15;;;;;;;;;;;;;;;22.21;69.45;100686.06;7404277;19;1552;-59
2022/06/14 08:25:46;;;;;;;;;;;;;;;22.14;70.30;100679.59;7404475;19;1685;-59
2022/06/14 08:28:16;;;;;;;;;;;;;;;22.22;69.77;100678.81;7404046;19;1846;-59
2022/06/14 08:30:48;;;;;;;;;;;;;;;22.23;69.82;100689.44;7404256;19;1464;-60
2022/06/14 08:33:22;;;;;;;;;;;;;;;22.23;70.19;100684.03;7405147;19;1698;-59
2022/06/14 08:35:53;;;;;;;;;;;;;;;22.40;70.07;100700.31;7403856;19;1472;-60
2022/06/14 08:38:25;;;;;;;;;;;;;;;22.23;70.50;100683.19;7404957;19;1470;-61
2022/06/14 08:41:06;;;;;;;;;;;;;;;22.22;70.47;100698.53;7404656;19;1542;-59
2022/06/14 08:43:38;;;;;;;;;;;;;;;22.26;70.31;100704.44;7404689;19;1679;-60
2022/06/14 08:46:15;;;;;;;;;;;;;;;22.22;70.19;100690.44;7403967;19;1667;-58
2022/06/14 08:48:52;;;;;;;;;;;;;;;22.20;70.72;100700.53;7404168;19;1841;-60
2022/06/14 08:51:29;;;;;;;;;;;;;;;22.27;70.76;100694.53;7404670;19;1530;-60
2022/06/14 08:54:17;;;;;;;;;;;;;;;22.38;70.43;100696.94;7404554;19;1543;-61
2022/06/14 08:57:09;;;;;;;;;;;;;;;22.42;70.79;100690.22;7403933;19;1367;-60
2022/06/14 08:59:59;;;;;;;;;;;;;;;22.49;70.61;100696.69;7402134;19;2061;-56
2022/06/14 09:02:43;;;;;;;;;;;;;;;22.38;71.15;100703.22;7401630;19;1656;-60
2022/06/14 09:05:29;;;;;;;;;;;;;;;22.34;71.06;100703.66;7404017;19;1542;-59
2022/06/14 09:08:18;;;;;;;;;;;;;;;22.30;71.69;100699.59;7402159;19;1810;-59
2022/06/14 09:10:56;;;;;;;;;;;;;;;22.27;71.85;100700.78;7403147;19;1865;-58
2022/06/14 09:13:39;;;;;;;;;;;;;;;22.26;71.61;100709.00;7404030;19;1624;-58
2022/06/14 09:16:18;;;;;;;;;;;;;;;22.22;71.54;100701.22;7403636;19;1759;-58
2022/06/14 09:18:59;;;;;;;;;;;;;;;22.23;71.70;100705.59;7409095;19;1669;-58
2022/06/14 09:21:33;;;;;;;;;;;;;;;22.22;71.57;100712.00;7410497;19;1417;-59
2022/06/14 09:24:12;;;;;;;;;;;;;;;22.26;71.44;100698.22;7411700;19;1620;-58
2022/06/14 09:26:47;;;;;;;;;;;;;;;22.27;71.52;100697.25;7411583;19;1442;-59
2022/06/14 09:29:33;;;;;;;;;;;;;;;22.25;71.23;100692.00;7410690;19;1861;-58
2022/06/14 09:32:19;;;;;;;;;;;;;;;22.32;71.41;100700.28;7412557;19;937;-58
2022/06/14 09:34:56;;;;;;;;;;;;;;;22.34;71.27;100700.97;7409997;19;1737;-59
2022/06/14 09:37:42;;;;;;;;;;;;;;;22.30;71.49;100694.22;7410497;19;1539;-59
2022/06/14 09:40:23;;;;;;;;;;;;;;;22.28;71.45;100705.13;7409954;19;1588;-58
2022/06/14 09:43:06;;;;;;;;;;;;;;;22.27;71.52;100705.31;7410625;19;1435;-58
2022/06/14 09:45:53;;;;;;;;;;;;;;;22.23;71.80;100692.13;7410112;19;1455;-58
2022/06/14 09:48:36;;;;;;;;;;;;;;;22.38;71.64;100713.13;7410207;19;1641;-59
2022/06/14 09:51:29;;;;;;;;;;;;;;;22.36;71.41;100683.66;7409192;19;1451;-59
2022/06/14 09:54:09;;;;;;;;;;;;;;;22.39;71.82;100698.66;7410423;19;1605;-67
2022/06/14 09:56:52;;;;;;;;;;;;;;;22.38;71.08;100702.34;7411013;19;1455;-60
2022/06/14 09:59:35;;;;;;;;;;;;;;;22.46;72.29;100702.38;7409764;19;1638;-59
2022/06/14 10:02:11;;;;;;;;;;;;;;;22.39;72.10;100704.03;7407209;19;1566;-59
2022/06/14 10:04:47;;;;;;;;;;;;;;;22.37;72.03;100692.59;7410092;19;1300;-59
2022/06/14 10:07:30;;;;;;;;;;;;;;;22.30;72.05;100683.44;7408948;19;1628;-59
2022/06/14 10:10:14;;;;;;;;;;;;;;;22.36;71.94;100698.97;7407872;19;1852;-59
2022/06/14 10:12:55;;;;;;;;;;;;;;;22.31;72.37;100693.22;7407464;19;1732;-58
2022/06/14 10:15:32;;;;;;;;;;;;;;;22.26;72.07;100693.69;7409237;19;1260;-58
2022/06/14 10:18:17;;;;;;;;;;;;;;;22.24;71.91;100688.47;7408521;19;1621;-58
2022/06/14 10:20:56;;;;;;;;;;;;;;;22.27;72.20;100697.25;7408497;19;1660;-58
2022/06/14 10:23:34;;;;;;;;;;;;;;;22.24;72.29;100675.00;7410478;19;991;-59
2022/06/14 10:28:59;;;;;;;;;;;;;;;22.23;72.33;100685.91;7408793;19;1846;-59
2022/06/14 10:31:35;;;;;;;;;;;;;;;22.21;72.20;100680.66;7409052;19;1743;-59
2022/06/14 10:34:12;;;;;;;;;;;;;;;22.23;72.11;100689.44;7408907;19;1557;-58
2022/06/14 10:36:55;;;;;;;;;;;;;;;22.23;72.34;100677.81;7407898;19;1615;-58
2022/06/14 10:39:36;;;;;;;;;;;;;;;22.19;72.52;100662.97;7408074;19;1538;-58
2022/06/14 10:42:09;;;;;;;;;;;;;;;22.19;72.30;100673.75;7405941;19;1563;-58
2022/06/14 10:44:42;;;;;;;;;;;;;;;22.19;72.50;100671.06;7407598;19;1692;-58
2022/06/14 10:47:13;;;;;;;;;;;;;;;22.19;72.36;100673.75;7408136;19;1609;-58
2022/06/14 10:49:57;;;;;;;;;;;;;;;22.19;72.55;100663.81;7406446;19;1877;-59
2022/06/14 10:52:35;;;;;;;;;;;;;;;22.17;72.38;100660.44;7405727;19;1787;-58
2022/06/14 10:55:12;;;;;;;;;;;;;;;22.17;72.32;100656.91;7404216;19;1542;-58
2022/06/14 10:57:51;;;;;;;;;;;;;;;22.19;72.42;100657.59;7405117;19;1666;-59
2022/06/14 11:00:25;;;;;;;;;;;;;;;22.24;72.04;100645.38;7403296;19;1416;-58
2022/06/14 11:03:18;;;;;;;;;;;;;;;22.22;72.21;100639.28;7405440;19;1696;-58
2022/06/14 11:06:00;;;;;;;;;;;;;;;22.23;72.04;100602.41;7405507;19;1753;-58
2022/06/14 11:08:40;;;;;;;;;;;;;;;22.26;72.17;100617.41;7406327;19;1613;-59
2022/06/14 11:11:15;;;;;;;;;;;;;;;22.24;72.05;100606.78;7404208;19;1860;-58
2022/06/14 11:13:47;;;;;;;;;;;;;;;22.24;72.24;100614.88;7405434;19;1712;-59
2022/06/14 11:16:22;;;;;;;;;;;;;;;22.29;72.34;100622.50;7405162;19;1657;-59
2022/06/14 11:19:02;;;;;;;;;;;;;;;22.25;72.82;100611.19;7406794;19;1503;-58
2022/06/14 11:21:38;;;;;;;;;;;;;;;22.26;72.64;100607.47;7406783;19;1419;-59
2022/06/14 11:24:10;;;;;;;;;;;;;;;22.23;72.68;100605.94;7405591;19;1464;-58
2022/06/14 11:26:43;;;;;;;;;;;;;;;22.24;72.39;100594.19;7406032;19;1451;-59
2022/06/14 11:29:14;;;;;;;;;;;;;;;22.23;72.40;100591.63;7404993;19;1846;-58
2022/06/14 11:31:46;;;;;;;;;;;;;;;22.22;72.40;100582.72;7406565;19;1511;-58
2022/06/14 11:34:31;;;;;;;;;;;;;;;22.22;72.32;100584.53;7405856;19;1633;-58
2022/06/14 11:37:13;;;;;;;;;;;;;;;22.23;72.41;100584.38;7405384;19;1570;-58
2022/06/14 11:39:44;;;;;;;;;;;;;;;22.21;72.49;100564.00;7404542;19;1265;-58
2022/06/14 11:42:17;;;;;;;;;;;;;;;22.23;72.64;100565.53;7400585;19;1653;-59
2022/06/14 11:44:52;;;;;;;;;;;;;;;22.24;72.74;100556.47;7405377;19;1558;-58
2022/06/14 11:47:28;;;;;;;;;;;;;;;22.24;72.48;100558.31;7405121;19;1559;-58
2022/06/14 11:50:01;;;;;;;;;;;;;;;22.22;72.53;100569.25;7404755;19;1847;-58
2022/06/14 11:52:49;;;;;;;;;;;;;;;22.26;72.67;100574.31;7405992;19;1614;-58
2022/06/14 11:55:25;;;;;;;;;;;;;;;22.23;73.13;100576.28;7405729;19;1645;-58
2022/06/14 11:57:57;;;;;;;;;;;;;;;22.22;73.06;100566.53;7404949;19;1689;-58
2022/06/14 12:00:33;;;;;;;;;;;;;;;22.21;73.32;100570.22;7405883;19;1711;-58
2022/06/14 12:03:08;;;;;;;;;;;;;;;22.23;73.28;100586.25;7404882;19;1626;-58
2022/06/14 12:05:41;;;;;;;;;;;;;;;22.20;73.22;100576.63;7404843;19;1719;-59
2022/06/14 12:08:17;;;;;;;;;;;;;;;22.27;73.40;100592.19;7405917;19;1542;-58
2022/06/14 12:10:53;;;;;;;;;;;;;;;22.22;72.92;100595.31;7403858;19;1862;-58
2022/06/14 12:13:39;;;;;;;;;;;;;;;22.23;73.25;100602.41;7404907;19;1641;-59
2022/06/14 12:16:13;;;;;;;;;;;;;;;22.22;72.92;100590.78;7405196;19;1551;-58
2022/06/14 12:18:44;;;;;;;;;;;;;;;22.23;73.28;100603.22;7405250;19;1536;-58
2022/06/14 12:21:16;;;;;;;;;;;;;;;22.23;72.90;100595.16;7405326;19;1681;-59
2022/06/14 12:23:49;;;;;;;;;;;;;;;22.22;72.99;100580.00;7404492;19;1514;-58
2022/06/14 12:29:04;;;;;;;;;;;;;;;22.20;72.79;100568.56;7406721;19;1348;-59
2022/06/14 12:31:38;;;;;;;;;;;;;;;22.22;72.76;100580.00;7402393;19;1853;-59
2022/06/14 12:34:10;;;;;;;;;;;;;;;22.20;72.99;100554.22;7404005;19;1680;-58
2022/06/14 12:36:43;;;;;;;;;;;;;;;22.21;72.89;100564.84;7404875;19;1625;-58
2022/06/14 12:39:18;;;;;;;;;;;;;;;22.22;72.82;100554.91;7404825;19;1347;-58
2022/06/14 12:41:50;;;;;;;;;;;;;;;22.20;72.96;100549.69;7403676;19;1479;-59
2022/06/14 12:44:33;;;;;;;;;;;;;;;22.18;72.72;100562.50;7403846;19;1531;-58
2022/06/14 12:47:03;;;;;;;;;;;;;;;22.18;73.05;100567.88;7404787;19;1586;-59
2022/06/14 12:49:34;;;;;;;;;;;;;;;22.15;73.08;100576.25;7404064;19;1843;-58
2022/06/14 12:52:06;;;;;;;;;;;;;;;22.22;73.30;100587.22;7403045;19;1538;-59
2022/06/14 12:54:45;;;;;;;;;;;;;;;22.16;73.09;100586.03;7404936;19;1343;-59
2022/06/14 12:57:18;;;;;;;;;;;;;;;22.14;73.32;100576.41;7402110;19;1607;-58
2022/06/14 12:59:52;;;;;;;;;;;;;;;22.15;73.33;100570.88;7403472;19;1538;-58
2022/06/14 13:02:23;;;;;;;;;;;;;;;22.13;72.92;100564.81;7402572;19;1746;-59
2022/06/14 13:04:53;;;;;;;;;;;;;;;22.14;73.34;100552.19;7403623;19;1759;-58
2022/06/14 13:07:49;;;;;;;;;;;;;;;22.11;73.00;100550.66;7402951;19;1514;-58
2022/06/14 13:10:30;;;;;;;;;;;;;;;22.16;72.62;100564.50;7400066;19;2039;-57
2022/06/14 13:13:05;;;;;;;;;;;;;;;22.17;72.82;100566.16;7402847;19;1613;-58
2022/06/14 13:15:36;;;;;;;;;;;;;;;22.17;72.82;100574.25;7402293;19;1664;-58
2022/06/14 13:18:24;;;;;;;;;;;;;;;22.21;73.06;100589.09;7403706;19;1790;-56
2022/06/14 13:20:58;;;;;;;;;;;;;;;22.33;72.92;100602.31;7403183;19;1478;-57
2022/06/14 13:23:39;;;;;;;;;;;;;;;22.33;72.67;100602.31;7404029;19;1724;-57
2022/06/14 13:26:28;;;;;;;;;;;;;;;22.28;72.77;100594.69;7403285;19;1554;-58
2022/06/14 13:29:09;;;;;;;;;;;;;;;22.30;72.72;100587.28;7402927;19;2418;-58
2022/06/14 13:31:45;;;;;;;;;;;;;;;22.31;72.74;100596.25;7403030;19;1838;-58
2022/06/14 13:34:22;;;;;;;;;;;;;;;22.24;72.82;100598.72;7403807;19;1426;-58
2022/06/14 13:36:59;;;;;;;;;;;;;;;22.23;73.14;100597.84;7403040;19;1358;-58
2022/06/14 13:39:31;;;;;;;;;;;;;;;22.29;73.11;100622.50;7402545;19;1459;-58
2022/06/14 13:42:03;;;;;;;;;;;;;;;22.22;73.81;100608.78;7400427;19;1736;-61